Time;durP1;ratioP1;P1;durP2;ratioP2;P2;SDS_P1;SDS_P2;PMS_P1;PMS_P2;Temp;Humidity;BMP_temperature;BMP_pressure;BME280_temperature;BME280_humidity;BME280_pressure;Samples;Min_cycle;Max_cycle;Signal;HPM_P1;HPM_P2
2021/03/25 00:00:43;;;;;;;35.17;17.75;;;103.00;1587.20;;;;;;5033531;28;20049;-76
2021/03/25 00:03:15;;;;;;;41.55;18.17;;;103.10;1612.80;;;;;;5021840;28;20547;-75
2021/03/25 00:05:41;;;;;;;42.33;18.13;;;103.00;1612.80;;;;;;5048427;28;20024;-77
2021/03/25 00:08:11;;;;;;;43.70;20.63;;;103.10;1612.80;;;;;;5053932;28;20024;-76
2021/03/25 00:10:37;;;;;;;43.03;21.83;;;103.30;1587.20;;;;;;5025256;28;20029;-78
2021/03/25 00:13:04;;;;;;;;;;;128.00;1612.80;;;;;;5022523;28;20025;-76
2021/03/25 00:15:30;;;;;;;43.60;21.35;;;128.10;1612.80;;;;;;5040347;28;20026;-76
2021/03/25 00:17:57;;;;;;;38.25;20.15;;;103.30;1612.80;;;;;;5040404;28;20497;-77
2021/03/25 00:20:23;;;;;;;41.15;18.83;;;128.00;1638.40;;;;;;5044321;28;20100;-80
2021/03/25 00:22:51;;;;;;;42.78;19.65;;;128.10;1664.00;;;;;;5042204;28;20021;-77
2021/03/25 00:25:20;;;;;;;36.08;18.17;;;128.30;1638.40;;;;;;5031727;28;20079;-77
2021/03/25 00:27:47;;;;;;;35.83;18.02;;;128.30;1664.00;;;;;;5055121;28;20093;-77
2021/03/25 00:30:15;;;;;;;37.78;17.58;;;128.40;1664.00;;;;;;5053248;28;20021;-77
2021/03/25 00:32:42;;;;;;;40.72;19.60;;;128.40;1689.60;;;;;;5055537;28;20489;-77
2021/03/25 00:35:10;;;;;;;36.05;16.67;;;128.20;1715.20;;;;;;5048972;28;20013;-78
2021/03/25 00:37:36;;;;;;;35.50;18.00;;;128.10;1740.80;;;;;;5052085;28;20120;-76
2021/03/25 00:40:03;;;;;;;;;;;103.20;1766.40;;;;;;5038854;28;20021;-77
2021/03/25 00:42:29;;;;;;;33.60;15.50;;;128.00;1766.40;;;;;;5028628;28;20326;-75
2021/03/25 00:44:55;;;;;;;;;;;128.10;1766.40;;;;;;5046391;28;20029;-77
2021/03/25 00:47:20;;;;;;;36.60;17.92;;;103.30;1766.40;;;;;;5028958;28;19917;-77
2021/03/25 00:49:46;;;;;;;;;;;103.20;1766.40;;;;;;5047904;28;20112;-76
2021/03/25 00:52:12;;;;;;;35.88;17.17;;;103.30;1792.00;;;;;;5030889;28;19996;-77
2021/03/25 00:54:37;;;;;;;;;;;103.10;1817.60;;;;;;5048865;28;20005;-76
2021/03/25 00:57:03;;;;;;;44.47;21.42;;;102.90;1868.80;;;;;;5047201;28;19972;-76
2021/03/25 00:59:29;;;;;;;42.42;18.92;;;102.90;1894.40;;;;;;5053327;28;20040;-77
2021/03/25 01:01:56;;;;;;;37.90;19.05;;;102.80;1920.00;;;;;;5028586;28;20108;-77
2021/03/25 01:04:22;;;;;;;38.17;18.33;;;102.60;1971.20;;;;;;5041425;28;20033;-78
2021/03/25 01:06:48;;;;;;;37.30;18.83;;;102.60;2022.40;;;;;;5044166;28;20116;-77
2021/03/25 01:09:21;;;;;;;;;;;102.50;2048.00;;;;;;5044719;28;20112;-76
2021/03/25 01:11:47;;;;;;;37.20;18.67;;;102.60;2022.40;;;;;;5050499;28;19906;-77
2021/03/25 01:14:14;;;;;;;35.10;18.33;;;102.50;2048.00;;;;;;5045151;28;20013;-76
2021/03/25 01:16:43;;;;;;;43.72;20.58;;;102.70;2022.40;;;;;;5034259;28;20033;-76
2021/03/25 01:19:13;;;;;;;41.00;19.00;;;102.80;1996.80;;;;;;5044256;28;20016;-77
2021/03/25 01:21:39;;;;;;;40.08;20.90;;;103.00;1971.20;;;;;;5032158;28;20051;-78
2021/03/25 01:24:06;;;;;;;45.65;23.25;;;102.90;1996.80;;;;;;5027243;28;20033;-76
2021/03/25 01:26:32;;;;;;;37.13;20.00;;;102.70;2022.40;;;;;;5024776;28;20044;-77
2021/03/25 01:29:01;;;;;;;37.63;19.77;;;102.80;2022.40;;;;;;5048448;28;20055;-77
2021/03/25 01:31:31;;;;;;;46.13;24.27;;;103.10;1971.20;;;;;;5045126;28;20018;-77
2021/03/25 01:33:57;;;;;;;47.13;23.90;;;103.20;1945.60;;;;;;5046028;28;20024;-77
2021/03/25 01:36:23;;;;;;;50.95;25.02;;;103.10;1971.20;;;;;;5045803;28;20026;-81
2021/03/25 01:38:49;;;;;;;52.22;25.67;;;102.90;1996.80;;;;;;5052360;28;20030;-78
2021/03/25 01:41:15;;;;;;;;;;;102.70;2022.40;;;;;;5044081;28;20041;-78
2021/03/25 01:43:43;;;;;;;51.10;25.88;;;103.10;2048.00;;;;;;5028735;28;19909;-78
2021/03/25 01:46:17;;;;;;;58.67;26.95;;;102.60;2048.00;;;;;;5049924;28;20037;-78
2021/03/25 01:48:45;;;;;;;53.72;26.85;;;102.80;2048.00;;;;;;5053892;28;20028;-77
2021/03/25 01:51:42;;;;;;;69.20;31.02;;;102.80;2048.00;;;;;;5030069;28;20488;-76
2021/03/25 01:54:32;;;;;;;49.80;24.65;;;103.00;1971.20;;;;;;5056552;28;20148;-79
2021/03/25 01:57:00;;;;;;;50.35;23.40;;;103.20;1894.40;;;;;;5038031;28;20022;-80
2021/03/25 02:00:04;;;;;;;73.68;31.25;;;103.20;1868.80;;;;;;5032531;28;20088;-76
2021/03/25 02:02:39;;;;;;;57.10;27.52;;;103.30;1868.80;;;;;;5034414;28;20445;-77
2021/03/25 02:05:22;;;;;;;68.53;30.20;;;103.30;1868.80;;;;;;5049606;28;20021;-78
2021/03/25 02:08:23;;;;;;;60.63;29.55;;;128.00;1894.40;;;;;;5051388;28;20028;-76
2021/03/25 02:11:01;;;;;;;66.70;30.45;;;103.20;1868.80;;;;;;5053841;28;20025;-76
2021/03/25 02:13:50;;;;;;;64.00;30.30;;;103.20;1868.80;;;;;;5036112;28;19997;-77
2021/03/25 02:16:26;;;;;;;70.63;32.30;;;103.20;1868.80;;;;;;5031579;28;20025;-75
2021/03/25 02:19:19;;;;;;;54.45;25.10;;;103.10;1868.80;;;;;;5061300;28;20067;-77
2021/03/25 02:22:03;;;;;;;68.07;31.10;;;103.00;1868.80;;;;;;5038348;28;20032;-76
2021/03/25 02:24:39;;;;;;;73.47;33.00;;;102.90;1894.40;;;;;;5055754;28;20029;-80
2021/03/25 02:27:42;;;;;;;61.58;29.35;;;102.90;1920.00;;;;;;5052372;28;20048;-76
2021/03/25 02:30:41;;;;;;;79.50;35.65;;;102.60;1920.00;;;;;;5040702;28;20376;-77
2021/03/25 02:33:11;;;;;;;73.03;34.90;;;102.50;1945.60;;;;;;4962451;29;20031;-77
2021/03/25 02:35:49;;;;;;;76.38;37.63;;;102.60;1945.60;;;;;;4966240;29;20015;-77
2021/03/25 02:38:30;;;;;;;79.65;35.60;;;102.70;1920.00;;;;;;4949851;29;20431;-78
2021/03/25 02:41:00;;;;;;;71.05;33.55;;;102.80;1894.40;;;;;;4947852;29;20390;-78
2021/03/25 02:44:00;;;;;;;79.28;35.90;;;102.80;1894.40;;;;;;4964231;29;20012;-79
2021/03/25 02:46:33;;;;;;;74.22;34.25;;;102.80;1894.40;;;;;;4964263;29;20030;-76
2021/03/25 02:49:03;;;;;;;67.55;34.55;;;102.70;1920.00;;;;;;4943223;29;20035;-76
2021/03/25 02:51:38;;;;;;;81.18;37.05;;;102.70;1920.00;;;;;;4964431;29;20019;-78
2021/03/25 02:54:05;;;;;;;80.00;33.67;;;102.60;1920.00;;;;;;4943614;29;20561;-76
2021/03/25 02:56:48;;;;;;;70.30;33.08;;;102.50;1945.60;;;;;;4960132;29;20031;-75
2021/03/25 02:59:23;;;;;;;76.10;32.08;;;77.70;1971.20;;;;;;4962155;29;20063;-75
2021/03/25 03:01:53;;;;;;;67.03;31.33;;;77.60;1971.20;;;;;;4944356;29;20118;-80
2021/03/25 03:04:23;;;;;;;70.97;31.60;;;77.70;1996.80;;;;;;4957922;29;20034;-82
2021/03/25 03:07:12;;;;;;;62.47;28.13;;;77.70;1996.80;;;;;;4960397;29;20082;-76
2021/03/25 03:09:41;;;;;;;52.72;24.90;;;77.60;1971.20;;;;;;4997274;28;20033;-82
2021/03/25 03:12:16;;;;;;;48.15;23.27;;;77.50;2022.40;;;;;;5047608;28;20038;-76
2021/03/25 03:14:52;;;;;;;48.70;25.17;;;77.50;2022.40;;;;;;5028395;28;20026;-77
2021/03/25 03:17:33;;;;;;;50.28;26.88;;;77.50;1996.80;;;;;;5043265;28;20513;-78
2021/03/25 03:20:21;;;;;;;55.55;27.90;;;77.50;1971.20;;;;;;5048021;28;20031;-76
2021/03/25 03:22:47;;;;;;;45.65;23.30;;;77.60;1971.20;;;;;;5026474;28;20030;-76
2021/03/25 03:25:18;;;;;;;47.38;24.90;;;77.60;1996.80;;;;;;5049103;28;20092;-77
2021/03/25 03:28:07;;;;;;;49.78;25.52;;;77.70;1996.80;;;;;;5029945;28;20128;-76
2021/03/25 03:30:44;;;;;;;37.38;21.00;;;77.50;1996.80;;;;;;5028464;28;20116;-77
2021/03/25 03:33:30;;;;;;;40.75;20.05;;;77.50;1996.80;;;;;;5045859;28;20083;-77
2021/03/25 03:36:12;;;;;;;39.22;21.80;;;77.50;1996.80;;;;;;5051566;28;20021;-77
2021/03/25 03:39:08;;;;;;;43.67;20.05;;;77.40;2022.40;;;;;;5032703;28;20048;-75
2021/03/25 03:41:54;;;;;;;41.00;21.42;;;77.40;2022.40;;;;;;5047415;28;20021;-74
2021/03/25 03:44:25;;;;;;;41.28;22.30;;;77.50;2022.40;;;;;;5047222;28;20024;-83
2021/03/25 03:46:52;;;;;;;39.60;22.15;;;77.50;2022.40;;;;;;5052507;28;20032;-78
2021/03/25 03:49:27;;;;;;;46.20;22.30;;;77.50;2022.40;;;;;;5042810;28;20123;-76
2021/03/25 03:52:20;;;;;;;44.17;22.63;;;77.40;2022.40;;;;;;5049325;28;20026;-76
2021/03/25 03:54:50;;;;;;;43.80;20.65;;;77.50;2048.00;;;;;;5049187;28;20278;-75
2021/03/25 03:57:32;;;;;;;36.22;19.50;;;77.50;2048.00;;;;;;5046495;28;20036;-75
2021/03/25 04:00:07;;;;;;;48.65;22.25;;;77.60;2048.00;;;;;;5045496;28;20116;-82
2021/03/25 04:02:40;;;;;;;56.47;23.25;;;77.40;2048.00;;;;;;5047011;28;20076;-76
2021/03/25 04:05:20;;;;;;;41.75;21.05;;;77.50;2048.00;;;;;;5029143;28;20025;-76
2021/03/25 04:07:51;;;;;;;42.10;20.83;;;77.50;2022.40;;;;;;5048529;28;20040;-79
2021/03/25 04:10:27;;;;;;;42.75;22.20;;;77.50;2022.40;;;;;;5052038;28;20052;-76
2021/03/25 04:12:58;;;;;;;55.10;26.40;;;77.50;2048.00;;;;;;5048207;28;20037;-75
2021/03/25 04:15:27;;;;;;;72.10;36.22;;;77.40;2073.60;;;;;;5049208;28;20025;-76
2021/03/25 04:18:18;;;;;;;86.80;44.17;;;77.50;2048.00;;;;;;5052950;28;20175;-76
2021/03/25 04:20:48;;;;;;;45.03;23.38;;;77.50;2048.00;;;;;;4969350;28;20042;-76
2021/03/25 04:23:19;;;;;;;43.00;23.08;;;77.40;2022.40;;;;;;4971476;28;20035;-75
2021/03/25 04:25:51;;;;;;;56.20;27.70;;;77.40;2048.00;;;;;;4978238;28;20042;-75
2021/03/25 04:29:00;;;;;;;51.83;26.60;;;77.40;2022.40;;;;;;4973283;28;20038;-81
2021/03/25 04:31:28;;;;;;;46.95;23.85;;;77.50;2022.40;;;;;;4968165;28;20019;-75
2021/03/25 04:33:56;;;;;;;43.65;24.48;;;77.50;2022.40;;;;;;4980309;28;20038;-76
2021/03/25 04:36:25;;;;;;;53.25;25.40;;;77.50;1996.80;;;;;;4980073;28;20509;-75
2021/03/25 04:38:51;;;;;;;49.20;25.15;;;77.40;2022.40;;;;;;4980302;28;20053;-76
2021/03/25 04:41:17;;;;;;;47.63;25.92;;;77.50;2022.40;;;;;;4983084;28;20034;-76
2021/03/25 04:43:45;;;;;;;47.95;23.23;;;77.20;2022.40;;;;;;4982736;28;20026;-77
2021/03/25 04:46:17;;;;;;;43.70;24.35;;;77.60;2022.40;;;;;;4986219;28;20119;-76
2021/03/25 04:48:45;;;;;;;45.88;23.55;;;77.60;2022.40;;;;;;4962515;28;20058;-76
2021/03/25 04:51:17;;;;;;;58.47;27.23;;;77.50;2048.00;;;;;;4981678;28;20431;-82
2021/03/25 04:53:44;;;;;;;92.78;37.78;;;77.40;2048.00;;;;;;4979146;28;20023;-82
2021/03/25 04:56:18;;;;;;;104.63;41.25;;;77.60;2048.00;;;;;;4961808;28;20039;-76
2021/03/25 04:58:54;;;;;;;73.00;31.55;;;77.40;2048.00;;;;;;5026014;28;20072;-82
2021/03/25 05:01:24;;;;;;;;;;;77.50;2048.00;;;;;;5051448;28;20048;-76
2021/03/25 05:03:55;;;;;;;56.00;27.50;;;77.50;2022.40;;;;;;5047473;28;20348;-75
2021/03/25 05:06:52;;;;;;;48.58;23.65;;;77.50;2022.40;;;;;;5052115;28;20051;-76
2021/03/25 05:09:23;;;;;;;45.30;23.55;;;77.50;2022.40;;;;;;5056218;28;20041;-80
2021/03/25 05:11:50;;;;;;;43.28;21.50;;;77.40;2022.40;;;;;;5047445;28;20025;-75
2021/03/25 05:14:25;;;;;;;40.60;22.60;;;77.40;2022.40;;;;;;5050750;28;20496;-74
2021/03/25 05:16:50;;;;;;;49.13;24.67;;;77.40;2022.40;;;;;;5043030;28;20042;-75
2021/03/25 05:19:19;;;;;;;40.90;23.30;;;77.20;2073.60;;;;;;5043328;28;20049;-78
2021/03/25 05:22:19;;;;;;;49.30;25.45;;;77.20;2073.60;;;;;;5046063;28;20021;-82
2021/03/25 05:24:57;;;;;;;48.50;24.15;;;77.40;2048.00;;;;;;5041528;28;20034;-78
2021/03/25 05:27:29;;;;;;;45.97;23.13;;;77.40;2048.00;;;;;;5041440;28;20483;-76
2021/03/25 05:29:58;;;;;;;63.03;27.20;;;77.50;2022.40;;;;;;5048673;28;20481;-76
2021/03/25 05:32:28;;;;;;;132.45;43.45;;;77.50;2048.00;;;;;;5038838;28;20093;-75
2021/03/25 05:34:57;;;;;;;107.35;38.40;;;77.60;2048.00;;;;;;5047169;28;20500;-75
2021/03/25 05:37:23;;;;;;;68.13;31.48;;;77.60;2022.40;;;;;;5044328;28;20771;-75
2021/03/25 05:39:49;;;;;;;;;;;77.70;2022.40;;;;;;5046874;28;20014;-75
2021/03/25 05:42:23;;;;;;;71.18;28.80;;;77.70;2022.40;;;;;;5049494;28;19912;-75
2021/03/25 05:45:21;;;;;;;66.40;30.67;;;77.70;2048.00;;;;;;5051138;28;20477;-75
2021/03/25 05:47:58;;;;;;;95.00;37.97;;;77.60;2073.60;;;;;;5050166;28;20075;-74
2021/03/25 05:50:33;;;;;;;99.53;42.08;;;102.40;2073.60;;;;;;5049901;28;20546;-77
2021/03/25 05:52:59;;;;;;;106.78;42.78;;;102.50;2073.60;;;;;;5051498;28;20029;-76
2021/03/25 05:56:03;;;;;;;92.45;40.17;;;102.60;2048.00;;;;;;5050613;28;20047;-76
2021/03/25 05:58:31;;;;;;;85.55;39.58;;;102.60;2048.00;;;;;;5054461;28;20041;-80
2021/03/25 06:01:18;;;;;;;119.70;46.95;;;102.80;2048.00;;;;;;5053915;28;20021;-75
2021/03/25 06:04:12;;;;;;;120.20;40.20;;;102.80;2048.00;;;;;;5049236;28;20088;-74
2021/03/25 06:07:00;;;;;;;118.95;47.92;;;102.80;2048.00;;;;;;5031548;28;20546;-75
2021/03/25 06:09:28;;;;;;;70.10;33.03;;;102.90;2048.00;;;;;;5052737;28;20016;-76
2021/03/25 06:12:13;;;;;;;58.55;28.98;;;102.90;2073.60;;;;;;5051133;28;20026;-75
2021/03/25 06:14:57;;;;;;;53.50;28.50;;;103.00;2073.60;;;;;;5050593;28;20036;-75
2021/03/25 06:17:50;;;;;;;52.00;27.85;;;102.90;2073.60;;;;;;5050592;28;20513;-75
2021/03/25 06:20:22;;;;;;;44.10;25.48;;;103.00;2073.60;;;;;;5046983;28;20040;-79
2021/03/25 06:23:27;;;;;;;45.08;24.40;;;103.10;2073.60;;;;;;5047210;28;20099;-76
2021/03/25 06:26:04;;;;;;;49.53;25.08;;;103.20;2073.60;;;;;;4994054;28;20019;-78
2021/03/25 06:29:02;;;;;;;47.08;25.08;;;103.30;2073.60;;;;;;4984337;28;20062;-75
2021/03/25 06:31:46;;;;;;;37.65;17.63;;;103.30;2099.20;;;;;;4986587;28;20038;-75
2021/03/25 06:34:15;;;;;;;51.72;25.52;;;103.20;2124.80;;;;;;4993922;28;20035;-80
2021/03/25 06:37:02;;;;;;;47.08;25.90;;;128.00;2124.80;;;;;;4981338;28;20034;-74
2021/03/25 06:39:40;;;;;;;;;;;128.00;2124.80;;;;;;5005254;28;20025;-82
2021/03/25 06:42:21;;;;;;;49.10;25.73;;;128.10;2124.80;;;;;;4999025;28;19933;-75
2021/03/25 06:45:42;;;;;;;49.30;25.38;;;128.20;2124.80;;;;;;5005413;28;20038;-76
2021/03/25 06:48:35;;;;;;;62.42;34.45;;;128.20;2150.40;;;;;;4930646;29;20040;-77
2021/03/25 06:51:20;;;;;;;54.72;31.25;;;128.30;2150.40;;;;;;4942479;29;20036;-78
2021/03/25 06:53:47;;;;;;;45.28;26.85;;;128.20;2150.40;;;;;;4926154;29;20484;-77
2021/03/25 06:56:21;;;;;;;53.35;28.83;;;128.00;2176.00;;;;;;4929759;29;20039;-77
2021/03/25 06:58:53;;;;;;;63.55;31.92;;;128.00;2201.60;;;;;;4931758;29;20126;-75
2021/03/25 07:01:31;;;;;;;55.30;27.83;;;128.20;2201.60;;;;;;4933787;29;20131;-75
2021/03/25 07:04:07;;;;;;;55.08;28.88;;;128.50;2176.00;;;;;;4944567;29;20107;-78
2021/03/25 07:06:35;;;;;;;44.80;24.63;;;128.70;2150.40;;;;;;4939214;29;20046;-76
2021/03/25 07:09:03;;;;;;;47.80;28.02;;;128.70;2201.60;;;;;;4940879;29;20047;-76
2021/03/25 07:11:31;;;;;;;58.22;29.48;;;128.90;2201.60;;;;;;4928083;29;20040;-76
2021/03/25 07:14:06;;;;;;;57.33;29.60;;;128.80;2176.00;;;;;;4927784;29;20043;-79
2021/03/25 07:16:37;;;;;;;51.42;28.77;;;128.80;2201.60;;;;;;4929925;29;20031;-77
2021/03/25 07:19:11;;;;;;;57.17;30.50;;;128.70;2201.60;;;;;;4930033;29;20043;-76
2021/03/25 07:21:40;;;;;;;48.53;28.10;;;128.70;2201.60;;;;;;4926102;29;20031;-75
2021/03/25 07:24:25;;;;;;;48.08;28.70;;;128.70;2227.20;;;;;;4940484;28;20098;-78
2021/03/25 07:27:07;;;;;;;57.92;30.85;;;128.70;2201.60;;;;;;5037953;28;20578;-75
2021/03/25 07:29:35;;;;;;;54.00;29.35;;;128.90;2227.20;;;;;;5041613;28;20026;-75
2021/03/25 07:32:04;;;;;;;55.67;29.05;;;153.70;2201.60;;;;;;5038098;28;20064;-77
2021/03/25 07:34:32;;;;;;;56.95;30.58;;;153.80;2201.60;;;;;;5042323;28;20022;-78
2021/03/25 07:36:59;;;;;;;73.60;34.58;;;153.70;2201.60;;;;;;5046187;28;20053;-79
2021/03/25 07:39:29;;;;;;;57.25;32.60;;;153.60;2227.20;;;;;;5054922;28;20029;-76
2021/03/25 07:41:56;;;;;;;62.78;33.80;;;153.90;2201.60;;;;;;5041737;28;20124;-77
2021/03/25 07:44:27;;;;;;;59.50;29.67;;;154.10;2176.00;;;;;;5039148;28;20029;-76
2021/03/25 07:46:57;;;;;;;54.40;30.98;;;154.30;2099.20;;;;;;5053667;28;20100;-75
2021/03/25 07:49:26;;;;;;;49.40;26.55;;;154.50;2073.60;;;;;;5045232;28;20029;-74
2021/03/25 07:51:57;;;;;;;50.83;27.45;;;154.50;2073.60;;;;;;5034400;28;20037;-75
2021/03/25 07:54:38;;;;;;;45.47;24.63;;;179.30;2048.00;;;;;;5033827;28;20117;-75
2021/03/25 07:57:12;;;;;;;42.97;24.77;;;179.20;2022.40;;;;;;5033951;28;20091;-75
2021/03/25 07:59:47;;;;;;;50.35;26.90;;;179.50;1971.20;;;;;;5033465;28;20040;-75
2021/03/25 08:02:42;;;;;;;50.30;25.48;;;179.60;1996.80;;;;;;5015276;28;20037;-75
2021/03/25 08:05:30;;;;;;;49.72;26.65;;;179.70;1996.80;;;;;;5012405;28;20128;-77
2021/03/25 08:08:05;;;;;;;37.97;23.10;;;179.70;1971.20;;;;;;5032525;28;20014;-77
2021/03/25 08:10:35;;;;;;;37.03;21.20;;;179.90;1920.00;;;;;;5033319;28;20030;-84
2021/03/25 08:13:21;;;;;;;39.80;22.85;;;180.00;1868.80;;;;;;5033027;28;20029;-74
2021/03/25 08:15:53;;;;;;;38.00;21.23;;;180.00;1894.40;;;;;;5032812;28;20021;-74
2021/03/25 08:18:34;;;;;;;32.45;18.55;;;180.00;1920.00;;;;;;5016586;28;20178;-74
2021/03/25 08:21:07;;;;;;;33.53;19.55;;;180.00;1843.20;;;;;;5013156;28;20494;-74
2021/03/25 08:24:22;;;;;;;34.47;20.35;;;180.10;1843.20;;;;;;5013108;28;20045;-87
2021/03/25 08:27:06;;;;;;;37.58;20.95;;;204.80;1843.20;;;;;;4933431;29;20156;-75
2021/03/25 08:29:44;;;;;;;33.70;18.52;;;180.10;1894.40;;;;;;4933610;29;20063;-75
2021/03/25 08:32:13;;;;;;;34.08;18.58;;;204.90;1843.20;;;;;;4933197;29;20040;-74
2021/03/25 08:34:44;;;;;;;37.03;19.80;;;205.00;1792.00;;;;;;4933341;29;20027;-74
2021/03/25 08:37:34;;;;;;;34.80;20.88;;;205.00;1817.60;;;;;;4933576;29;20512;-74
2021/03/25 08:40:04;;;;;;;36.70;20.15;;;205.10;1843.20;;;;;;4933117;29;20404;-74
2021/03/25 08:42:44;;;;;;;37.95;22.08;;;205.30;1766.40;;;;;;4933460;29;20028;-74
2021/03/25 08:45:21;;;;;;;38.28;20.27;;;205.40;1766.40;;;;;;4933337;29;20047;-77
2021/03/25 08:47:47;;;;;;;35.40;18.95;;;205.50;1766.40;;;;;;4933147;29;20067;-74
2021/03/25 08:50:27;;;;;;;;;;;205.70;1715.20;;;;;;4933650;29;20047;-75
2021/03/25 08:52:55;;;;;;;27.35;16.75;;;205.70;1664.00;;;;;;4933038;29;19946;-76
2021/03/25 08:55:28;;;;;;;31.58;17.42;;;230.40;1664.00;;;;;;4932970;29;20121;-86
2021/03/25 08:57:59;;;;;;;27.38;16.98;;;230.60;1638.40;;;;;;4990157;28;20528;-75
2021/03/25 09:00:29;;;;;;;33.42;17.73;;;230.60;1587.20;;;;;;5012347;28;20034;-77
2021/03/25 09:03:21;;;;;;;27.65;15.63;;;230.60;1612.80;;;;;;5012571;28;20417;-74
2021/03/25 09:06:08;;;;;;;24.15;15.25;;;230.70;1536.00;;;;;;5021905;28;20025;-75
2021/03/25 09:08:39;;;;;;;29.60;16.13;;;230.90;1484.80;;;;;;5032046;28;20065;-75
2021/03/25 09:11:10;;;;;;;31.40;16.48;;;231.00;1510.40;;;;;;5032164;28;20032;-76
2021/03/25 09:13:44;;;;;;;22.48;13.02;;;231.10;1382.40;;;;;;5032135;28;20068;-74
2021/03/25 09:16:32;;;;;;;25.83;14.68;;;231.20;1331.20;;;;;;5031896;28;20021;-90
2021/03/25 09:18:59;;;;;;;25.10;13.43;;;231.30;1356.80;;;;;;5051314;28;20045;-85
2021/03/25 09:21:29;;;;;;;22.27;11.70;;;256.10;1331.20;;;;;;5052045;28;20542;-84
2021/03/25 09:24:01;;;;;;;20.48;10.90;;;256.20;1254.40;;;;;;5051741;28;20497;-75
2021/03/25 09:26:27;;;;;;;20.08;11.80;;;256.30;1203.20;;;;;;5043989;28;20014;-74
2021/03/25 09:28:58;;;;;;;20.20;11.70;;;256.50;1228.80;;;;;;5040885;28;20026;-79
2021/03/25 09:31:40;;;;;;;16.25;9.07;;;256.70;1126.40;;;;;;5039259;28;20265;-74
2021/03/25 09:34:11;;;;;;;17.98;9.35;;;256.60;1024.00;;;;;;5036805;28;20022;-89
2021/03/25 09:36:46;;;;;;;18.17;9.98;;;256.80;1075.20;;;;;;5042194;28;20122;-75
2021/03/25 09:39:23;;;;;;;16.35;9.40;;;281.70;1075.20;;;;;;5040454;28;20499;-78
2021/03/25 09:41:50;;;;;;;20.35;9.95;;;281.80;998.40;;;;;;5033818;28;20441;-82
2021/03/25 09:44:36;;;;;;;15.00;8.50;;;282.10;1024.00;;;;;;5036681;28;20021;-74
2021/03/25 09:47:02;;;;;;;15.03;7.90;;;282.30;972.80;;;;;;5032203;28;20025;-75
2021/03/25 09:49:27;;;;;;;;;;;282.30;972.80;;;;;;5016457;28;20278;-81
2021/03/25 09:52:12;;;;;;;13.48;6.72;;;307.20;947.20;;;;;;5031627;28;19909;-76
2021/03/25 09:54:46;;;;;;;11.38;5.75;;;307.20;896.00;;;;;;5031698;28;20021;-75
2021/03/25 09:57:35;;;;;;;10.70;6.93;;;307.40;844.80;;;;;;5033912;28;20075;-75
2021/03/25 10:00:24;;;;;;;14.88;8.13;;;307.40;870.40;;;;;;5045790;28;20044;-76
2021/03/25 10:02:54;;;;;;;15.52;8.90;;;307.60;896.00;;;;;;5033833;28;20052;-87
2021/03/25 10:05:27;;;;;;;14.90;8.13;;;307.60;870.40;;;;;;5051684;28;20100;-79
2021/03/25 10:08:12;;;;;;;15.13;8.13;;;307.90;870.40;;;;;;5033419;28;20072;-80
2021/03/25 10:10:54;;;;;;;14.13;8.38;;;332.80;870.40;;;;;;5033493;28;20029;-75
2021/03/25 10:13:19;;;;;;;20.45;11.15;;;333.00;896.00;;;;;;5051624;28;20025;-76
2021/03/25 10:15:56;;;;;;;18.27;9.43;;;333.10;896.00;;;;;;5033195;28;20087;-75
2021/03/25 10:18:24;;;;;;;19.58;7.88;;;333.00;870.40;;;;;;5050791;28;20049;-74
2021/03/25 10:21:07;;;;;;;14.45;7.28;;;333.00;819.20;;;;;;5033347;28;20029;-75
2021/03/25 10:23:42;;;;;;;10.70;7.32;;;333.20;844.80;;;;;;5051067;28;20047;-75
2021/03/25 10:26:11;;;;;;;14.50;7.40;;;333.50;819.20;;;;;;5051483;28;20445;-77
2021/03/25 10:28:48;;;;;;;13.18;6.75;;;333.70;768.00;;;;;;5053052;28;20040;-79
2021/03/25 10:31:20;;;;;;;12.30;6.55;;;333.70;742.40;;;;;;5054870;28;20036;-74
2021/03/25 10:33:46;;;;;;;11.88;6.80;;;358.40;742.40;;;;;;5054820;28;20055;-75
2021/03/25 10:36:18;;;;;;;10.52;6.70;;;358.50;742.40;;;;;;5054587;28;20021;-74
2021/03/25 10:38:52;;;;;;;11.98;7.20;;;358.40;742.40;;;;;;5054684;28;20044;-74
2021/03/25 10:41:22;;;;;;;10.73;6.85;;;358.40;768.00;;;;;;5043805;28;20096;-75
2021/03/25 10:43:51;;;;;;;12.63;7.55;;;358.70;742.40;;;;;;5034930;28;20030;-74
2021/03/25 10:46:33;;;;;;;11.07;6.65;;;359.10;742.40;;;;;;5034648;28;20452;-76
2021/03/25 10:49:16;;;;;;;11.50;6.45;;;359.30;742.40;;;;;;5032953;28;20134;-75
2021/03/25 10:51:44;;;;;;;9.55;6.00;;;384.00;691.20;;;;;;5034416;28;20029;-75
2021/03/25 10:54:21;;;;;;;11.77;6.25;;;384.20;691.20;;;;;;5035562;28;20024;-85
2021/03/25 10:56:48;;;;;;;11.95;5.80;;;384.20;665.60;;;;;;5042218;28;20029;-73
2021/03/25 10:59:18;;;;;;;11.00;6.45;;;384.10;691.20;;;;;;5042328;28;20449;-75
2021/03/25 11:01:54;;;;;;;12.00;6.65;;;384.30;691.20;;;;;;5024795;28;20034;-78
2021/03/25 11:04:24;;;;;;;9.50;5.82;;;384.30;716.80;;;;;;5039240;28;20381;-76
2021/03/25 11:06:51;;;;;;;10.07;6.18;;;384.70;665.60;;;;;;5034358;28;20021;-80
2021/03/25 11:09:21;;;;;;;12.68;7.18;;;384.50;640.00;;;;;;5032859;28;20025;-87
2021/03/25 11:11:53;;;;;;;12.68;6.38;;;359.10;691.20;;;;;;5034192;28;20013;-75
2021/03/25 11:14:29;;;;;;;12.00;5.93;;;359.20;691.20;;;;;;5033880;28;20068;-86
2021/03/25 11:17:02;;;;;;;10.48;6.20;;;384.30;614.40;;;;;;5036612;28;20087;-85
2021/03/25 11:19:28;;;;;;;12.68;6.90;;;384.50;614.40;;;;;;5053860;28;20073;-79
2021/03/25 11:21:58;;;;;;;9.65;5.68;;;384.60;640.00;;;;;;5046807;28;20059;-78
2021/03/25 11:24:29;;;;;;;17.10;6.35;;;384.60;614.40;;;;;;5053942;28;20021;-75
2021/03/25 11:26:58;;;;;;;10.95;6.22;;;384.80;640.00;;;;;;5044179;28;20100;-76
2021/03/25 11:29:27;;;;;;;14.40;7.15;;;409.70;640.00;;;;;;5041441;28;20100;-72
2021/03/25 11:32:18;;;;;;;14.90;7.20;;;410.10;640.00;;;;;;5049036;28;20021;-72
2021/03/25 11:34:46;;;;;;;12.18;7.03;;;410.00;640.00;;;;;;5050526;28;20028;-74
2021/03/25 11:37:32;;;;;;;10.60;6.25;;;409.90;640.00;;;;;;5040127;28;20034;-74
2021/03/25 11:40:22;;;;;;;9.27;5.80;;;409.60;640.00;;;;;;5042150;28;20532;-73
2021/03/25 11:43:03;;;;;;;18.05;8.55;;;409.60;665.60;;;;;;5039519;28;20254;-73
2021/03/25 11:45:50;;;;;;;12.60;7.50;;;409.60;665.60;;;;;;5039668;28;20025;-73
2021/03/25 11:48:18;;;;;;;8.52;5.55;;;409.90;665.60;;;;;;5041699;28;20017;-73
2021/03/25 11:50:46;;;;;;;10.35;6.57;;;409.90;640.00;;;;;;5023840;28;20039;-73
2021/03/25 11:53:27;;;;;;;18.63;7.88;;;409.80;640.00;;;;;;5043417;28;20049;-72
2021/03/25 11:55:53;;;;;;;11.57;6.45;;;409.60;640.00;;;;;;5042989;28;20112;-73
2021/03/25 11:58:23;;;;;;;11.20;6.57;;;409.70;640.00;;;;;;5039524;28;20041;-72
2021/03/25 12:01:02;;;;;;;10.32;6.15;;;409.80;640.00;;;;;;5042530;28;20052;-77
2021/03/25 12:03:33;;;;;;;9.95;6.68;;;410.00;665.60;;;;;;5040404;28;20025;-74
2021/03/25 12:05:59;;;;;;;11.35;6.63;;;410.30;665.60;;;;;;5041158;28;20018;-77
2021/03/25 12:08:28;;;;;;;10.50;6.45;;;410.30;640.00;;;;;;5043724;28;20500;-84
2021/03/25 12:11:00;;;;;;;8.57;6.20;;;409.90;640.00;;;;;;5043402;28;20081;-86
2021/03/25 12:13:25;;;;;;;10.82;6.72;;;410.20;665.60;;;;;;5039960;28;20021;-82
2021/03/25 12:15:51;;;;;;;12.75;5.63;;;410.20;665.60;;;;;;5023317;28;20031;-87
2021/03/25 12:18:28;;;;;;;8.85;5.32;;;409.90;640.00;;;;;;5042803;28;20045;-86
2021/03/25 12:20:56;;;;;;;9.70;5.90;;;409.70;640.00;;;;;;5024378;28;20033;-80
2021/03/25 12:23:34;;;;;;;10.13;6.05;;;384.90;640.00;;;;;;5038743;28;20087;-76
2021/03/25 12:26:04;;;;;;;11.30;6.47;;;409.90;614.40;;;;;;5034484;28;20508;-83
2021/03/25 12:28:30;;;;;;;19.90;13.23;;;410.30;640.00;;;;;;5043462;28;20029;-82
2021/03/25 12:30:56;;;;;;;13.90;6.95;;;410.30;614.40;;;;;;5041478;28;20044;-75
2021/03/25 12:33:31;;;;;;;9.43;5.45;;;410.20;665.60;;;;;;5043746;28;20509;-76
2021/03/25 12:35:59;;;;;;;8.07;5.25;;;435.20;614.40;;;;;;5040578;28;20499;-76
2021/03/25 12:38:25;;;;;;;15.05;4.95;;;410.30;665.60;;;;;;5040252;28;20091;-77
2021/03/25 12:40:52;;;;;;;9.07;6.10;;;435.20;665.60;;;;;;5041062;28;20052;-73
2021/03/25 12:43:20;;;;;;;9.15;5.43;;;435.30;665.60;;;;;;5036242;28;20013;-73
2021/03/25 12:45:50;;;;;;;8.60;5.10;;;435.20;640.00;;;;;;5040316;28;20060;-74